Terminal Aerodrome Forecast
Issued by NWS Cleveland, OH

Home | Current Version | Previous Version | Graphics & Text | Print | Product List | Glossary On
Versions: 1 2 3 4 5 6 7 8 9 10 11 12 13 14 15 16 17 18 19 20 21 22 23
000
FTUS41 KCLE 240314 AAA
TAFYNG
TAF AMD
KYNG 240314Z 2403/2424 25010KT P6SM OVC015
      TEMPO 2403/2406 BKN008
     FM240600 35004KT 4SM BR OVC008
     FM241200 05006KT 6SM BR OVC006
     FM241800 09010KT 3SM -RA BR OVC004=

USA.gov is the U.S. government's official web portal to all federal, state and local government web resources and services.